createdAt,value
2019-06-08T00:00:26.191Z,101402.91
2019-06-08T00:02:55.843Z,101402.91
2019-06-08T00:05:25.480Z,101401.93
2019-06-08T00:07:55.186Z,101409.22
2019-06-08T00:10:25.870Z,101413.67
2019-06-08T00:12:55.741Z,101407.32
2019-06-08T00:15:25.476Z,101408.39
2019-06-08T00:17:55.103Z,101408.16
2019-06-08T00:20:25.219Z,101412.84
2019-06-08T00:22:54.938Z,101418.12
2019-06-08T00:25:24.639Z,101424.36
2019-06-08T00:27:54.287Z,101422.23
2019-06-08T00:30:24.084Z,101422.84
2019-06-08T00:32:53.734Z,101430.59
2019-06-08T00:35:24.920Z,101430.22
2019-06-08T00:37:54.684Z,101429.99
2019-06-08T00:40:25.232Z,101441.72
2019-06-08T00:42:55.024Z,101442.31
2019-06-08T00:45:25.684Z,101445.95
2019-06-08T00:47:55.467Z,101449.69
2019-06-08T00:50:25.256Z,101444.55
2019-06-08T00:52:54.869Z,101444.44
2019-06-08T00:55:25.728Z,101443.15
2019-06-08T00:57:55.949Z,101441.03
2019-06-08T01:00:26.798Z,101439.86
2019-06-08T01:02:59.753Z,101439.73
2019-06-08T01:05:27.882Z,101438.33
2019-06-08T01:07:57.723Z,101434.56
2019-06-08T01:10:27.609Z,101446.65
2019-06-08T01:12:57.877Z,101440.45
2019-06-08T01:15:32.675Z,101444.19
2019-06-08T01:18:03.921Z,101447.37
2019-06-08T01:20:30.679Z,101447.81
2019-06-08T01:23:00.403Z,101445.59
2019-06-08T01:25:30.165Z,101433.51
2019-06-08T01:27:59.740Z,101439.27
2019-06-08T01:30:30.589Z,101429.98
2019-06-08T01:33:00.488Z,101431.17
2019-06-08T01:35:31.750Z,101425.87
2019-06-08T01:38:01.442Z,101429.07
2019-06-08T01:40:31.576Z,101427.45
2019-06-08T01:43:01.254Z,101430.11
2019-06-08T01:45:32.862Z,101430.92
2019-06-08T01:48:18.895Z,101436.80
2019-06-08T01:50:36.365Z,101440.30
2019-06-08T01:53:06.050Z,101446.07
2019-06-08T01:55:35.730Z,101447.23
2019-06-08T01:58:06.307Z,101446.05
2019-06-08T02:00:41.078Z,101446.05
2019-06-08T02:03:09.996Z,101453.23
2019-06-08T02:05:39.613Z,101450.52
2019-06-08T02:08:09.345Z,101447.58
2019-06-08T02:10:40.563Z,101443.83
2019-06-08T02:13:10.199Z,101441.47
2019-06-08T02:15:40.052Z,101441.47
2019-06-08T02:18:09.686Z,101440.06
2019-06-08T02:20:39.465Z,101437.15
2019-06-08T02:23:09.630Z,101437.84
2019-06-08T02:25:39.583Z,101431.48
2019-06-08T02:28:10.362Z,101427.17
2019-06-08T02:30:41.969Z,101429.64
2019-06-08T02:33:11.960Z,101435.15
2019-06-08T02:35:41.918Z,101441.95
2019-06-08T02:38:11.728Z,101439.59
2019-06-08T02:40:41.437Z,101438.44
2019-06-08T02:43:11.749Z,101438.18
2019-06-08T02:45:41.630Z,101448.05
2019-06-08T02:48:11.335Z,101453.55
2019-06-08T02:50:53.424Z,101455.43
2019-06-08T02:53:24.594Z,101452.38
2019-06-08T02:55:54.397Z,101452.98
2019-06-08T02:58:24.144Z,101451.45
2019-06-08T03:00:55.617Z,101448.98
2019-06-08T03:03:27.639Z,101453.78
2019-06-08T03:06:00.672Z,101457.55
2019-06-08T03:08:34.318Z,101459.44
2019-06-08T03:11:05.542Z,101458.38
2019-06-08T03:13:36.110Z,101453.22
2019-06-08T03:16:06.596Z,101442.75
2019-06-08T03:18:40.047Z,101443.22
2019-06-08T03:21:09.559Z,101445.94
2019-06-08T03:23:40.991Z,101443.45
2019-06-08T03:26:11.403Z,101445.44
2019-06-08T03:28:44.386Z,101446.13
2019-06-08T03:31:14.312Z,101444.84
2019-06-08T03:33:53.928Z,101449.55
2019-06-08T03:36:15.773Z,101447.92
2019-06-08T03:38:46.265Z,101458.94
2019-06-08T03:41:15.966Z,101458.94
2019-06-08T03:43:46.593Z,101462.91
2019-06-08T03:46:16.252Z,101469.73
2019-06-08T03:48:46.589Z,101461.39
2019-06-08T03:51:17.298Z,101460.80
2019-06-08T03:53:48.009Z,101472.27
2019-06-08T03:56:17.820Z,101468.64
2019-06-08T03:58:48.106Z,101467.95
2019-06-08T04:01:18.025Z,101467.25
2019-06-08T04:03:47.938Z,101466.42
2019-06-08T04:06:18.748Z,101469.33
2019-06-08T04:08:49.874Z,101469.78
2019-06-08T04:11:20.934Z,101465.82
2019-06-08T04:13:50.609Z,101473.80
2019-06-08T04:16:21.925Z,101471.45
2019-06-08T04:18:51.598Z,101467.34
2019-06-08T04:21:21.264Z,101468.50
2019-06-08T04:23:51.269Z,101464.77
2019-06-08T04:26:20.875Z,101461.72
2019-06-08T04:28:50.557Z,101465.95
2019-06-08T04:31:20.190Z,101465.13
2019-06-08T04:33:50.873Z,101460.93
2019-06-08T04:36:21.503Z,101455.44
2019-06-08T04:38:51.144Z,101461.66
2019-06-08T04:41:21.149Z,101458.70
2019-06-08T04:43:50.896Z,101459.53
2019-06-08T04:46:20.537Z,101462.11
2019-06-08T04:48:50.342Z,101464.59
2019-06-08T04:51:20.215Z,101463.07
2019-06-08T04:53:49.927Z,101457.44
2019-06-08T04:56:19.551Z,101450.75
2019-06-08T04:58:51.154Z,101460.87
2019-06-08T05:01:20.596Z,101461.56
2019-06-08T05:03:50.302Z,101457.56
2019-06-08T05:06:20.034Z,101461.23
2019-06-08T05:08:49.921Z,101459.94
2019-06-08T05:11:19.683Z,101457.34
2019-06-08T05:13:50.244Z,101458.30
2019-06-08T05:16:19.876Z,101464.05
2019-06-08T05:18:49.893Z,101463.70
2019-06-08T05:21:19.752Z,101464.76
2019-06-08T05:23:58.387Z,101467.14
2019-06-08T05:26:20.693Z,101472.63
2019-06-08T05:28:50.404Z,101476.88
2019-06-08T05:31:20.119Z,101471.70
2019-06-08T05:33:49.871Z,101476.63
2019-06-08T05:36:19.685Z,101482.03
2019-06-08T05:38:49.843Z,101481.45
2019-06-08T05:41:19.864Z,101486.38
2019-06-08T05:43:50.136Z,101487.67
2019-06-08T05:46:19.788Z,101480.98
2019-06-08T05:48:50.317Z,101481.34
2019-06-08T05:51:20.344Z,101474.86
2019-06-08T05:53:50.271Z,101474.86
2019-06-08T05:56:21.950Z,101472.75
2019-06-08T05:58:53.126Z,101473.92
2019-06-08T06:01:22.774Z,101470.02
2019-06-08T06:03:53.779Z,101472.72
2019-06-08T06:06:23.459Z,101472.72
2019-06-08T06:08:53.101Z,101482.22
2019-06-08T06:11:22.747Z,101475.28
2019-06-08T06:13:52.424Z,101480.20
2019-06-08T06:16:22.072Z,101475.03
2019-06-08T06:18:52.357Z,101469.52
2019-06-08T06:21:22.516Z,101476.55
2019-06-08T06:23:52.152Z,101470.55
2019-06-08T06:26:21.795Z,101474.08
2019-06-08T06:28:52.025Z,101473.94
2019-06-08T06:31:21.672Z,101464.53
2019-06-08T06:33:52.370Z,101465.14
2019-06-08T06:36:23.142Z,101463.13
2019-06-08T06:38:52.860Z,101461.59
2019-06-08T06:41:22.500Z,101455.91
2019-06-08T06:43:52.659Z,101451.41
2019-06-08T06:46:22.305Z,101451.41
2019-06-08T06:48:52.620Z,101461.62
2019-06-08T06:51:26.110Z,101459.14
2019-06-08T06:53:54.089Z,101459.14
2019-06-08T06:56:24.087Z,101459.14
2019-06-08T06:58:53.892Z,101461.32
2019-06-08T07:01:23.580Z,101461.84
2019-06-08T07:03:54.351Z,101466.29
2019-06-08T07:06:24.224Z,101466.86
2019-06-08T07:08:54.609Z,101470.02
2019-06-08T07:11:24.374Z,101471.88
2019-06-08T07:13:55.171Z,101467.27
2019-06-08T07:16:24.912Z,101469.37
2019-06-08T07:18:54.726Z,101475.12
2019-06-08T07:21:25.064Z,101478.95
2019-06-08T07:23:56.305Z,101469.98
2019-06-08T07:26:26.057Z,101475.93
2019-06-08T07:28:55.951Z,101478.50
2019-06-08T07:31:26.095Z,101480.78
2019-06-08T07:33:55.902Z,101469.09
2019-06-08T07:36:25.582Z,101477.98
2019-06-08T07:38:55.512Z,101474.70
2019-06-08T07:41:25.487Z,101470.32
2019-06-08T07:43:56.553Z,101468.02
2019-06-08T07:46:26.262Z,101459.50
2019-06-08T07:48:56.549Z,101461.94
2019-06-08T07:51:26.621Z,101459.81
2019-06-08T07:53:57.209Z,101456.80
2019-06-08T07:56:27.041Z,101462.07
2019-06-08T07:58:57.189Z,101456.02
2019-06-08T08:01:36.266Z,101457.39
2019-06-08T08:03:59.125Z,101452.25
2019-06-08T08:06:30.595Z,101451.03
2019-06-08T08:09:00.487Z,101449.34
2019-06-08T08:11:30.105Z,101452.61
2019-06-08T08:14:00.125Z,101456.26
2019-06-08T08:16:29.765Z,101452.56
2019-06-08T08:18:59.782Z,101456.38
2019-06-08T08:21:29.788Z,101457.95
2019-06-08T08:24:01.420Z,101449.28
2019-06-08T08:26:34.198Z,101448.26
2019-06-08T08:29:03.764Z,101445.10
2019-06-08T08:31:33.396Z,101441.28
2019-06-08T08:34:05.633Z,101438.44
2019-06-08T08:36:34.699Z,101440.91
2019-06-08T08:39:08.449Z,101443.22
2019-06-08T08:41:39.085Z,101439.52
2019-06-08T08:44:09.129Z,101444.23
2019-06-08T08:46:38.976Z,101453.17
2019-06-08T08:49:12.316Z,101449.15
2019-06-08T08:51:40.259Z,101450.52
2019-06-08T08:54:10.176Z,101448.94
2019-06-08T08:56:39.832Z,101448.52
2019-06-08T08:59:10.747Z,101449.86
2019-06-08T09:01:40.723Z,101441.30
2019-06-08T09:04:14.502Z,101448.34
2019-06-08T09:06:44.227Z,101445.33
2019-06-08T09:09:13.937Z,101447.80
2019-06-08T09:11:43.568Z,101448.41
2019-06-08T09:14:14.368Z,101443.69
2019-06-08T09:16:44.700Z,101441.62
2019-06-08T09:19:14.475Z,101444.16
2019-06-08T09:21:44.206Z,101443.77
2019-06-08T09:24:13.983Z,101447.66
2019-06-08T09:26:43.659Z,101447.11
2019-06-08T09:29:13.355Z,101444.41
2019-06-08T09:31:43.016Z,101435.72
2019-06-08T09:34:15.416Z,101440.98
2019-06-08T09:36:44.079Z,101437.67
2019-06-08T09:39:13.849Z,101433.69
2019-06-08T09:41:43.664Z,101438.09
2019-06-08T09:44:13.454Z,101441.56
2019-06-08T09:46:43.211Z,101442.86
2019-06-08T09:49:12.960Z,101432.16
2019-06-08T09:51:42.591Z,101437.07
2019-06-08T09:54:13.062Z,101442.44
2019-06-08T09:56:43.013Z,101446.87
2019-06-08T09:59:15.403Z,101444.74
2019-06-08T10:01:44.227Z,101449.17
2019-06-08T10:04:14.035Z,101444.67
2019-06-08T10:06:44.628Z,101445.38
2019-06-08T10:09:14.944Z,101440.56
2019-06-08T10:11:44.593Z,101448.62
2019-06-08T10:14:14.301Z,101450.80
2019-06-08T10:16:44.036Z,101450.02
2019-06-08T10:19:13.699Z,101442.87
2019-06-08T10:21:43.498Z,101441.47
2019-06-08T10:24:13.152Z,101442.27
2019-06-08T10:26:42.770Z,101438.75
2019-06-08T10:29:12.453Z,101442.69
2019-06-08T10:31:43.907Z,101442.73
2019-06-08T10:34:13.681Z,101443.39
2019-06-08T10:36:43.405Z,101438.26
2019-06-08T10:39:13.057Z,101442.06
2019-06-08T10:41:42.840Z,101438.23
2019-06-08T10:44:14.234Z,101451.09
2019-06-08T10:46:43.873Z,101437.27
2019-06-08T10:49:14.779Z,101439.50
2019-06-08T10:51:44.844Z,101436.44
2019-06-08T10:54:14.470Z,101436.81
2019-06-08T10:56:44.214Z,101441.88
